Swea City, Iowa
Current Conditions -  °F | °C
As of 6:35 PM on Thursday 27 Nov 2014 (Local Time) from KFRM Reporting Station
Overcast Overcast  
Wind Chill: -17°   Ceiling: 4200
Heat Index:   Visibility: 10mi
Dew Point: -6°   Wind: 10mph
Humidity: 78%   Direction: 150°SSE
Pressure: 30.31"   Gusts: NA
Location:  43.38°N, 94.31°W
Report Text: KFRM 280035Z AUTO 15009KT 10SM OVC042 M18/M21 A3031 RMK AO1
Loading
Personal Weather Stations






























Interactive Weather Map New forecast layout! Learn more

10-Day Weather Forecast

Advertisements
Track Severe Weather on mobile